Time;durP1;ratioP1;P1;durP2;ratioP2;P2;SDS_P1;SDS_P2;PMS_P1;PMS_P2;Temp;Humidity;BMP_temperature;BMP_pressure;BME280_temperature;BME280_humidity;BME280_pressure;Samples;Min_cycle;Max_cycle;Signal;HPM_P1;HPM_P2
2022/06/22 00:01:46;;;;;;;7.00;4.10;;;;;;;12.08;100.00;101488.94;5006034;28;20209;-77
2022/06/22 00:04:47;;;;;;;10.75;4.55;;;;;;;12.01;100.00;101487.44;5023388;28;20030;-76
2022/06/22 00:07:20;;;;;;;7.60;5.00;;;;;;;11.99;100.00;101489.28;4997456;28;20068;-77
2022/06/22 00:09:46;;;;;;;5.95;4.65;;;;;;;11.97;100.00;101496.44;5022862;28;20431;-76
2022/06/22 00:12:23;;;;;;;7.22;4.82;;;;;;;12.00;100.00;101495.47;5006958;28;20455;-77
2022/06/22 00:14:51;;;;;;;6.88;5.00;;;;;;;11.98;100.00;101498.16;5007328;28;20109;-77
2022/06/22 00:17:36;;;;;;;8.55;5.15;;;;;;;11.96;100.00;101486.75;4993872;28;20041;-77
2022/06/22 00:20:12;;;;;;;11.07;5.45;;;;;;;11.98;100.00;101500.81;5009859;28;20037;-77
2022/06/22 00:22:49;;;;;;;7.82;4.88;;;;;;;11.95;100.00;101493.84;5022332;28;20045;-77
2022/06/22 00:25:37;;;;;;;7.00;4.80;;;;;;;11.92;100.00;101493.09;5011930;28;20464;-77
2022/06/22 00:28:28;;;;;;;6.53;5.03;;;;;;;11.91;100.00;101486.06;5005673;28;21142;-76
2022/06/22 00:30:58;;;;;;;8.68;5.10;;;;;;;11.91;100.00;101476.34;5009930;28;20033;-76
2022/06/22 00:33:23;;;;;;;5.88;4.57;;;;;;;11.87;100.00;101479.19;5010077;28;20038;-76
2022/06/22 00:35:54;;;;;;;8.20;5.28;;;;;;;11.82;100.00;101485.53;5009475;28;20028;-77
2022/06/22 00:38:23;;;;;;;7.63;5.32;;;;;;;11.80;100.00;101481.22;5005208;28;20030;-77
2022/06/22 00:40:51;;;;;;;7.93;5.07;;;;;;;11.76;100.00;101480.47;5012321;28;20034;-77
2022/06/22 00:43:17;;;;;;;7.65;5.00;;;;;;;11.74;100.00;101479.69;4974973;28;20059;-76
2022/06/22 00:45:43;;;;;;;8.23;4.47;;;;;;;11.68;100.00;101475.47;5011241;28;20049;-77
2022/06/22 00:48:41;;;;;;;8.27;5.30;;;;;;;11.68;100.00;101461.34;5006344;28;20083;-76
2022/06/22 00:51:13;;;;;;;6.85;4.80;;;;;;;11.66;100.00;101460.56;4983186;28;20041;-76
2022/06/22 00:53:45;;;;;;;7.03;5.15;;;;;;;11.62;100.00;101464.25;4995823;28;20042;-76
2022/06/22 00:56:28;;;;;;;8.02;5.35;;;;;;;11.61;100.00;101462.53;5005691;28;20037;-77
2022/06/22 00:59:06;;;;;;;7.78;4.95;;;;;;;11.57;100.00;101471.53;5007893;28;20034;-76
2022/06/22 01:02:00;;;;;;;9.55;5.72;;;;;;;11.53;100.00;101468.13;5010143;28;20100;-77
2022/06/22 01:04:39;;;;;;;9.27;5.57;;;;;;;11.50;100.00;101471.75;5012004;28;20103;-77
2022/06/22 01:07:14;;;;;;;9.40;5.45;;;;;;;11.51;100.00;101464.69;5011863;28;20081;-76
2022/06/22 01:10:02;;;;;;;11.30;6.20;;;;;;;11.49;100.00;101469.19;5007450;28;20473;-75
2022/06/22 01:12:31;;;;;;;8.82;5.68;;;;;;;11.46;100.00;101459.56;5007263;28;20099;-76
2022/06/22 01:15:09;;;;;;;8.70;6.00;;;;;;;11.44;100.00;101465.84;5011084;28;20503;-76
2022/06/22 01:17:45;;;;;;;10.35;6.00;;;;;;;11.44;100.00;101465.84;5009380;28;20053;-76
2022/06/22 01:20:17;;;;;;;10.38;6.00;;;;;;;11.42;100.00;101473.84;5024760;28;20121;-76
2022/06/22 01:22:45;;;;;;;11.23;5.90;;;;;;;11.43;100.00;101469.44;5006672;28;20350;-76
2022/06/22 01:25:24;;;;;;;10.50;6.32;;;;;;;11.44;100.00;101476.47;5026681;28;20669;-76
2022/06/22 01:27:50;;;;;;;10.57;6.15;;;;;;;11.45;100.00;101480.81;5005680;28;20041;-76
2022/06/22 01:30:19;;;;;;;11.45;5.80;;;;;;;11.41;100.00;101477.44;5009295;28;20519;-77
2022/06/22 01:32:45;;;;;;;7.75;5.95;;;;;;;11.38;100.00;101482.84;5004822;28;20040;-77
2022/06/22 01:35:17;;;;;;;8.85;5.85;;;;;;;11.35;100.00;101488.28;5010091;28;20653;-78
2022/06/22 01:37:45;;;;;;;9.45;5.43;;;;;;;11.32;100.00;101483.09;4992574;28;20132;-77
2022/06/22 01:40:17;;;;;;;12.75;5.47;;;;;;;11.31;100.00;101479.56;5009281;28;20488;-77
2022/06/22 01:42:54;;;;;;;14.88;6.15;;;;;;;11.31;100.00;101484.00;5010078;28;20100;-77
2022/06/22 01:45:37;;;;;;;12.23;5.93;;;;;;;11.29;100.00;101484.09;5006208;28;20037;-77
2022/06/22 01:48:12;;;;;;;9.52;6.07;;;;;;;11.24;100.00;101481.59;5023972;28;20475;-77
2022/06/22 01:50:46;;;;;;;9.30;5.50;;;;;;;11.27;100.00;101486.78;5009522;28;20064;-77
2022/06/22 01:53:20;;;;;;;9.57;6.13;;;;;;;11.28;100.00;101472.59;5002469;28;21056;-77
2022/06/22 01:55:52;;;;;;;9.77;5.97;;;;;;;11.24;100.00;101463.03;5012012;28;20028;-77
2022/06/22 01:58:18;;;;;;;8.43;5.70;;;;;;;11.21;100.00;101465.81;4972819;28;20459;-77
2022/06/22 02:00:52;;;;;;;10.82;6.00;;;;;;;11.22;100.00;101469.34;5009063;28;20037;-77
2022/06/22 02:03:24;;;;;;;8.52;5.50;;;;;;;11.19;100.00;101470.31;5007053;28;20048;-77
2022/06/22 02:05:53;;;;;;;6.80;5.03;;;;;;;11.18;100.00;101481.84;4992677;28;20074;-77
2022/06/22 02:08:21;;;;;;;6.28;4.85;;;;;;;11.16;100.00;101490.78;5012550;28;20052;-77
2022/06/22 02:10:59;;;;;;;7.47;5.05;;;;;;;11.14;100.00;101498.78;5007814;28;20167;-77
2022/06/22 02:13:43;;;;;;;6.13;4.28;;;;;;;11.08;100.00;101486.63;4990352;28;20588;-77
2022/06/22 02:16:26;;;;;;;6.70;5.03;;;;;;;11.07;100.00;101481.38;5008475;28;20124;-77
2022/06/22 02:19:13;;;;;;;9.00;5.55;;;;;;;11.05;100.00;101475.28;5022751;28;20052;-78
2022/06/22 02:21:42;;;;;;;9.38;5.47;;;;;;;11.02;100.00;101476.25;5009413;28;20551;-77
2022/06/22 02:24:28;;;;;;;8.68;5.35;;;;;;;10.96;100.00;101485.28;5006274;28;20068;-77
2022/06/22 02:27:13;;;;;;;10.38;5.47;;;;;;;10.96;100.00;101479.97;5006311;28;20077;-77
2022/06/22 02:29:45;;;;;;;10.20;5.47;;;;;;;10.97;100.00;101479.06;5022052;28;20073;-77
2022/06/22 02:32:15;;;;;;;9.93;5.20;;;;;;;10.98;100.00;101470.19;4988058;28;20030;-78
2022/06/22 02:34:42;;;;;;;7.15;5.28;;;;;;;10.93;100.00;101473.91;5022092;28;20038;-77
2022/06/22 02:37:08;;;;;;;9.13;5.43;;;;;;;10.89;100.00;101474.97;5002861;28;20039;-78
2022/06/22 02:39:39;;;;;;;8.18;5.07;;;;;;;10.84;100.00;101478.66;5023648;28;20064;-77
2022/06/22 02:44:50;;;;;;;6.85;5.30;;;;;;;10.77;100.00;101489.50;5008989;28;20037;-78
2022/06/22 02:47:44;;;;;;;8.25;5.18;;;;;;;10.79;100.00;101485.03;5008978;28;20079;-78
2022/06/22 02:50:17;;;;;;;7.80;4.75;;;;;;;10.81;100.00;101481.41;5005582;28;20420;-77
2022/06/22 02:52:47;;;;;;;8.80;5.13;;;;;;;10.80;100.00;101492.06;5005977;28;20095;-77
2022/06/22 02:55:15;;;;;;;9.45;5.38;;;;;;;10.78;100.00;101485.97;5022803;28;20033;-78
2022/06/22 02:57:44;;;;;;;9.55;5.00;;;;;;;10.79;100.00;101485.03;5007571;28;20033;-77
2022/06/22 03:00:10;;;;;;;9.38;5.70;;;;;;;10.80;100.00;101486.75;5005790;28;20118;-76
2022/06/22 03:02:36;;;;;;;9.13;5.72;;;;;;;10.82;100.00;101495.50;5025037;28;20404;-77
2022/06/22 03:05:05;;;;;;;8.85;5.60;;;;;;;10.81;100.00;101497.31;5013875;28;20025;-77
2022/06/22 03:07:32;;;;;;;8.63;4.97;;;;;;;10.76;100.00;101493.06;5013099;28;20037;-77
2022/06/22 03:09:58;;;;;;;7.57;4.80;;;;;;;10.73;100.00;101486.97;5011566;28;21529;-78
2022/06/22 03:12:23;;;;;;;7.63;5.05;;;;;;;10.72;100.00;101489.69;5027298;28;20045;-78
2022/06/22 03:14:53;;;;;;;6.97;4.65;;;;;;;10.64;100.00;101487.31;5011070;28;20061;-77
2022/06/22 03:17:24;;;;;;;5.78;4.05;;;;;;;10.59;100.00;101490.09;5012308;28;20152;-78
2022/06/22 03:20:00;;;;;;;6.25;3.70;;;;;;;10.60;100.00;101498.94;5007337;28;20114;-78
2022/06/22 03:22:31;;;;;;;8.02;4.10;;;;;;;10.60;100.00;101501.56;5026021;28;20038;-77
2022/06/22 03:25:07;;;;;;;6.28;4.07;;;;;;;10.56;100.00;101510.53;5012707;28;20492;-77
2022/06/22 03:27:36;;;;;;;5.82;3.63;;;;;;;10.59;100.00;101515.75;5026657;28;20063;-77
2022/06/22 03:30:10;;;;;;;5.80;3.95;;;;;;;10.57;100.00;101515.78;5008392;28;20061;-77
2022/06/22 03:32:55;;;;;;;5.30;3.78;;;;;;;10.57;100.00;101517.59;5010491;28;20127;-78
2022/06/22 03:35:45;;;;;;;4.25;3.45;;;;;;;10.57;100.00;101512.28;5010832;28;20041;-77
2022/06/22 03:38:14;;;;;;;4.53;3.92;;;;;;;10.57;100.00;101507.00;5002913;28;20054;-77
2022/06/22 03:40:53;;;;;;;8.00;3.33;;;;;;;10.58;100.00;101508.72;5005931;28;20171;-78
2022/06/22 03:43:23;;;;;;;12.05;2.97;;;;;;;10.57;100.00;101507.84;4998326;28;20488;-78
2022/06/22 03:46:01;;;;;;;20.20;2.85;;;;;;;10.53;100.00;101500.06;5021063;28;20033;-78
2022/06/22 03:48:30;;;;;;;5.05;2.63;;;;;;;10.43;100.00;101495.09;4978583;28;20677;-78
2022/06/22 03:51:20;;;;;;;4.82;2.25;;;;;;;10.36;100.00;101493.53;4998987;28;20390;-78
2022/06/22 03:53:59;;;;;;;3.92;2.30;;;;;;;10.31;100.00;101476.94;5013092;28;20474;-78
2022/06/22 03:56:38;;;;;;;2.85;2.17;;;;;;;10.28;100.00;101475.28;5024855;28;20495;-78
2022/06/22 03:59:04;;;;;;;5.63;2.70;;;;;;;10.23;100.00;101469.25;5010049;28;20108;-78
2022/06/22 04:01:30;;;;;;;7.38;2.50;;;;;;;10.21;100.00;101473.75;5008621;28;20532;-78
2022/06/22 04:03:56;;;;;;;8.20;2.47;;;;;;;10.22;100.00;101464.00;5010830;28;20033;-78
2022/06/22 04:06:37;;;;;;;2.45;2.25;;;;;;;10.16;100.00;101468.63;5011339;28;20068;-78
2022/06/22 04:09:08;;;;;;;5.75;2.50;;;;;;;10.14;100.00;101465.13;4994074;28;20033;-77
2022/06/22 04:11:57;;;;;;;2.88;1.98;;;;;;;10.10;100.00;101460.88;5009573;28;20531;-78
2022/06/22 04:14:37;;;;;;;4.28;1.92;;;;;;;10.07;100.00;101455.69;5005949;28;20448;-77
2022/06/22 04:17:05;;;;;;;12.88;2.53;;;;;;;10.05;100.00;101452.22;5025176;28;20392;-78
2022/06/22 04:19:41;;;;;;;8.07;2.60;;;;;;;10.04;100.00;101440.78;4996789;28;20091;-77
2022/06/22 04:22:14;;;;;;;7.95;2.60;;;;;;;10.09;100.00;101451.22;5008374;28;20389;-77
2022/06/22 04:24:49;;;;;;;3.72;2.60;;;;;;;10.17;100.00;101451.81;5008285;28;20685;-78
2022/06/22 04:27:37;;;;;;;2.95;2.35;;;;;;;10.26;100.00;101444.47;5020605;28;20111;-78
2022/06/22 04:30:08;;;;;;;6.15;2.75;;;;;;;10.32;100.00;101441.63;5014306;28;20048;-78
2022/06/22 04:32:39;;;;;;;2.45;2.25;;;;;;;10.38;100.00;101430.81;5009439;28;20037;-78
2022/06/22 04:35:17;;;;;;;2.60;2.40;;;;;;;10.44;100.00;101422.69;5010143;28;20037;-78
2022/06/22 04:37:52;;;;;;;3.50;2.47;;;;;;;10.49;100.00;101425.19;5012129;28;20026;-78
2022/06/22 04:40:44;;;;;;;3.33;2.60;;;;;;;10.54;100.00;101423.25;4995438;28;20033;-78
2022/06/22 04:43:10;;;;;;;4.80;2.85;;;;;;;10.57;100.00;101416.97;5027899;28;20052;-78
2022/06/22 04:45:43;;;;;;;4.22;3.13;;;;;;;10.62;100.00;101425.59;5010449;28;20509;-78
2022/06/22 04:48:14;;;;;;;3.97;3.35;;;;;;;10.69;100.00;101431.53;5027094;28;21570;-78
2022/06/22 04:50:41;;;;;;;6.07;3.55;;;;;;;10.76;100.00;101440.97;5011584;28;20052;-78
2022/06/22 04:53:21;;;;;;;4.63;3.65;;;;;;;10.83;100.00;101445.13;5027076;28;20080;-77
2022/06/22 04:55:47;;;;;;;5.28;3.78;;;;;;;10.89;100.00;101444.03;5027071;28;20132;-78
2022/06/22 04:58:32;;;;;;;7.00;4.25;;;;;;;10.96;100.00;101437.59;5027203;28;20503;-78
2022/06/22 05:00:59;;;;;;;8.07;4.38;;;;;;;11.06;100.00;101442.56;4994765;28;20063;-78
2022/06/22 05:03:24;;;;;;;9.80;5.07;;;;;;;11.17;100.00;101440.34;5011724;28;20041;-78
2022/06/22 05:05:52;;;;;;;7.95;5.85;;;;;;;11.27;100.00;101451.44;5012440;28;20045;-78
2022/06/22 05:08:37;;;;;;;10.07;5.57;;;;;;;11.41;100.00;101448.28;5027110;28;20194;-78
2022/06/22 05:11:06;;;;;;;8.95;5.90;;;;;;;11.52;100.00;101453.16;5012525;28;20118;-78
2022/06/22 05:13:34;;;;;;;11.48;6.38;;;;;;;11.64;100.00;101460.63;5008826;28;20041;-78
2022/06/22 05:16:02;;;;;;;11.13;6.82;;;;;;;11.78;100.00;101470.66;5014092;28;20041;-77
2022/06/22 05:18:34;;;;;;;10.10;7.18;;;;;;;11.94;100.00;101470.06;5025968;28;20034;-77
2022/06/22 05:21:01;;;;;;;12.38;8.40;;;;;;;12.12;100.00;101472.88;5008813;28;20596;-76
2022/06/22 05:23:28;;;;;;;12.88;9.23;;;;;;;12.36;100.00;101470.97;5006473;28;20022;-76
2022/06/22 05:25:55;;;;;;;15.73;8.95;;;;;;;12.63;100.00;101474.22;5010177;28;20089;-76
2022/06/22 05:28:37;;;;;;;14.90;9.77;;;;;;;12.89;100.00;101468.69;4974250;28;20030;-76
2022/06/22 05:31:06;;;;;;;13.93;9.98;;;;;;;13.09;100.00;101465.13;5004008;28;20117;-77
2022/06/22 05:33:34;;;;;;;13.73;9.90;;;;;;;13.28;100.00;101462.47;5009617;28;20067;-76
2022/06/22 05:36:08;;;;;;;12.43;9.20;;;;;;;13.46;100.00;101467.00;4991429;28;20038;-76
2022/06/22 05:38:36;;;;;;;14.85;9.05;;;;;;;13.59;100.00;101457.50;5010297;28;20481;-77
2022/06/22 05:41:07;;;;;;;11.55;8.45;;;;;;;13.72;100.00;101471.06;4991409;28;20045;-76
2022/06/22 05:43:37;;;;;;;12.23;8.40;;;;;;;13.87;100.00;101466.78;5004898;28;20087;-77
2022/06/22 05:46:05;;;;;;;11.02;7.63;;;;;;;14.07;100.00;101478.25;5009256;28;20033;-77
2022/06/22 05:48:33;;;;;;;10.50;8.10;;;;;;;14.26;100.00;101479.03;4992051;28;20496;-76
2022/06/22 05:51:02;;;;;;;11.25;7.60;;;;;;;14.45;100.00;101478.09;5025380;28;20026;-74
2022/06/22 05:53:32;;;;;;;10.88;7.50;;;;;;;14.62;100.00;101474.56;5009392;28;20392;-77
2022/06/22 05:56:00;;;;;;;10.10;7.78;;;;;;;14.79;100.00;101476.38;5010825;28;20516;-77
2022/06/22 05:58:59;;;;;;;10.60;7.20;;;;;;;14.97;100.00;101480.78;5020405;28;20037;-73
2022/06/22 06:01:45;;;;;;;10.77;7.40;;;;;;;15.18;100.00;101481.41;5004725;28;20049;-74
2022/06/22 06:04:15;;;;;;;10.25;7.05;;;;;;;15.37;100.00;101485.72;4993420;28;20068;-74
2022/06/22 06:06:41;;;;;;;9.57;7.13;;;;;;;15.54;100.00;101479.44;5009568;28;20041;-76
2022/06/22 06:09:12;;;;;;;12.52;7.32;;;;;;;15.68;100.00;101471.50;5009588;28;20476;-76
2022/06/22 06:12:00;;;;;;;8.02;5.93;;;;;;;15.87;100.00;101471.31;5007058;28;20045;-76
2022/06/22 06:14:30;;;;;;;8.05;5.90;;;;;;;16.04;100.00;101472.19;5008482;28;20056;-77
2022/06/22 06:17:00;;;;;;;12.13;6.28;;;;;;;16.20;100.00;101461.44;5023878;28;20102;-77
2022/06/22 06:19:29;;;;;;;7.93;6.15;;;;;;;16.35;100.00;101467.66;5022893;28;20036;-77
2022/06/22 06:21:58;;;;;;;10.13;5.57;;;;;;;16.53;100.00;101468.41;5018238;28;20037;-77
2022/06/22 06:24:37;;;;;;;8.35;5.93;;;;;;;16.70;100.00;101469.16;5004668;28;20033;-77
2022/06/22 06:30:13;;;;;;;5.63;4.63;;;;;;;16.99;98.71;101477.19;5008636;28;20072;-77
2022/06/22 06:33:04;;;;;;;6.25;4.03;;;;;;;17.15;97.46;101486.97;5009343;28;20456;-77
2022/06/22 06:35:33;;;;;;;5.90;4.00;;;;;;;17.31;97.88;101492.16;5007886;28;20063;-77
2022/06/22 06:38:29;;;;;;;4.80;2.83;;;;;;;17.46;95.96;101496.56;5001686;28;21342;-77
2022/06/22 06:41:05;;;;;;;5.25;2.70;;;;;;;17.60;95.93;101502.84;5008719;28;20037;-77
2022/06/22 06:43:36;;;;;;;5.13;3.10;;;;;;;17.81;95.68;101497.03;5012939;28;20402;-76
2022/06/22 06:46:03;;;;;;;3.13;2.83;;;;;;;18.03;95.11;101508.03;4992183;28;20028;-77
2022/06/22 06:48:31;;;;;;;4.43;3.38;;;;;;;18.04;94.11;101496.34;5001407;28;20445;-77
2022/06/22 06:51:02;;;;;;;4.68;2.78;;;;;;;18.21;92.93;101501.56;4997333;28;20033;-77
2022/06/22 06:53:34;;;;;;;3.90;2.83;;;;;;;18.36;91.68;101513.09;5005728;28;20070;-76
2022/06/22 06:56:05;;;;;;;6.35;2.20;;;;;;;18.48;91.75;101508.69;4990739;28;20500;-77
2022/06/22 06:58:40;;;;;;;4.07;2.35;;;;;;;18.58;89.88;101507.13;5008991;28;20033;-77
2022/06/22 07:01:05;;;;;;;3.42;2.70;;;;;;;18.57;89.89;101510.72;5005703;28;20025;-77
2022/06/22 07:03:39;;;;;;;3.97;2.50;;;;;;;18.69;88.90;101507.19;5006657;28;20087;-77
2022/06/22 07:06:05;;;;;;;3.20;2.17;;;;;;;18.91;88.74;101510.22;5010797;28;20034;-77
2022/06/22 07:08:37;;;;;;;3.42;2.75;;;;;;;19.05;87.78;101509.25;5006776;28;20040;-76
2022/06/22 07:11:31;;;;;;;3.50;1.80;;;;;;;19.06;85.31;101511.84;5008892;28;20472;-77
2022/06/22 07:14:02;;;;;;;3.10;1.92;;;;;;;19.16;86.09;101505.84;5009517;28;20131;-77
2022/06/22 07:16:28;;;;;;;2.95;1.92;;;;;;;19.18;85.32;101509.25;5009874;28;20559;-77
2022/06/22 07:19:06;;;;;;;3.83;2.60;;;;;;;19.32;85.95;101514.47;4994122;28;20099;-77
2022/06/22 07:21:43;;;;;;;3.55;2.00;;;;;;;19.46;84.42;101512.63;5012097;28;20084;-76
2022/06/22 07:24:13;;;;;;;4.82;2.38;;;;;;;19.51;83.45;101507.78;5009422;28;20037;-77
2022/06/22 07:26:47;;;;;;;4.05;2.40;;;;;;;19.54;81.81;101507.53;5007569;28;20048;-77
2022/06/22 07:29:27;;;;;;;2.90;2.22;;;;;;;19.72;81.00;101501.81;5009104;28;21062;-77
2022/06/22 07:32:15;;;;;;;5.38;2.30;;;;;;;19.80;78.83;101502.06;5007591;28;20057;-78
2022/06/22 07:35:25;;;;;;;2.97;2.22;;;;;;;19.98;77.21;101502.56;5008793;28;20094;-77
2022/06/22 07:38:29;;;;;;;4.95;2.20;;;;;;;20.10;78.03;101506.13;4991970;28;20068;-78
2022/06/22 07:43:41;;;;;;;3.17;2.15;;;;;;;20.33;78.35;101499.00;5010233;28;20725;-78
2022/06/22 07:46:09;;;;;;;3.10;2.20;;;;;;;20.39;77.81;101505.75;4995334;28;20146;-77
2022/06/22 07:48:39;;;;;;;4.22;2.10;;;;;;;20.46;77.20;101506.13;5014276;28;20560;-77
2022/06/22 07:51:07;;;;;;;2.92;1.70;;;;;;;20.64;77.26;101503.84;5012648;28;20030;-77
2022/06/22 07:53:50;;;;;;;4.20;1.95;;;;;;;20.84;73.57;101504.16;4994876;28;20079;-78
2022/06/22 07:56:23;;;;;;;3.15;2.15;;;;;;;20.85;73.56;101503.16;5012505;28;20573;-77
2022/06/22 07:58:53;;;;;;;4.00;2.30;;;;;;;20.78;74.21;101502.78;5010193;28;21735;-76
2022/06/22 08:01:29;;;;;;;4.00;2.20;;;;;;;20.91;74.18;101501.84;4995419;28;20043;-77
2022/06/22 08:04:34;;;;;;;4.18;2.17;;;;;;;21.00;69.47;101501.97;5009575;28;20391;-77
2022/06/22 08:07:08;;;;;;;3.03;2.28;;;;;;;20.91;73.61;101491.91;5010023;28;20044;-77
2022/06/22 08:09:40;;;;;;;1.88;1.65;;;;;;;21.11;72.05;101492.16;5011785;28;20438;-77
2022/06/22 08:12:11;;;;;;;2.40;1.90;;;;;;;21.14;71.34;101495.47;5008578;28;20112;-76
2022/06/22 08:14:41;;;;;;;9.32;2.20;;;;;;;21.29;71.20;101498.75;5009403;28;20254;-77
2022/06/22 08:17:41;;;;;;;1.60;1.50;;;;;;;21.26;65.51;101499.03;5010066;28;20041;-76
2022/06/22 08:20:07;;;;;;;2.38;1.60;;;;;;;21.35;68.71;101499.25;4993842;28;20033;-76
2022/06/22 08:22:33;;;;;;;3.65;1.80;;;;;;;21.44;67.81;101498.50;5011723;28;20041;-76
2022/06/22 08:25:01;;;;;;;3.95;2.00;;;;;;;21.36;67.80;101507.19;5010185;28;20041;-77
2022/06/22 08:27:27;;;;;;;2.67;1.95;;;;;;;21.37;68.28;101497.28;5010261;28;20642;-77
2022/06/22 08:29:55;;;;;;;4.07;2.53;;;;;;;21.41;68.26;101498.75;5024737;28;20610;-76
2022/06/22 08:32:30;;;;;;;2.45;2.10;;;;;;;21.43;66.49;101496.78;5014971;28;20628;-76
2022/06/22 08:34:58;;;;;;;4.82;2.30;;;;;;;21.51;68.57;101499.69;5009156;28;20029;-77
2022/06/22 08:37:37;;;;;;;4.43;2.20;;;;;;;21.49;65.38;101498.97;5011213;28;20043;-76
2022/06/22 08:40:32;;;;;;;2.53;2.00;;;;;;;21.60;60.45;101497.22;5009435;28;20041;-75
2022/06/22 08:43:14;;;;;;;2.97;2.30;;;;;;;21.58;66.04;101500.91;5026445;28;20079;-76
2022/06/22 08:46:04;;;;;;;2.67;2.10;;;;;;;21.64;64.11;101501.38;5025635;28;20037;-76
2022/06/22 08:48:38;;;;;;;2.30;2.05;;;;;;;21.60;65.76;101497.22;5011689;28;20045;-76
2022/06/22 08:51:24;;;;;;;3.65;2.00;;;;;;;21.65;63.63;101497.69;5008538;28;20033;-75
2022/06/22 08:54:28;;;;;;;4.53;2.22;;;;;;;21.75;62.80;101485.22;5024204;28;20440;-80
2022/06/22 08:56:56;;;;;;;4.45;2.20;;;;;;;21.83;65.75;101487.25;5012011;28;20095;-80
2022/06/22 08:59:34;;;;;;;3.78;2.55;;;;;;;21.92;66.73;101491.91;5008826;28;20167;-79
2022/06/22 09:02:00;;;;;;;2.42;2.13;;;;;;;21.93;64.71;101490.03;4990737;28;20040;-78
2022/06/22 09:04:55;;;;;;;2.72;1.85;;;;;;;21.87;60.39;101498.63;4990528;28;20396;-80
2022/06/22 09:07:53;;;;;;;1.90;1.50;;;;;;;21.87;63.74;101494.13;5012209;28;20378;-80
2022/06/22 09:10:25;;;;;;;4.28;1.92;;;;;;;21.93;63.55;101501.69;4988324;28;20615;-81
2022/06/22 09:13:29;;;;;;;4.95;1.95;;;;;;;22.09;60.27;101498.56;5008828;28;20053;-80
2022/06/22 09:16:13;;;;;;;2.78;1.63;;;;;;;22.17;60.15;101497.06;4977694;28;20038;-80
2022/06/22 09:18:58;;;;;;;2.13;1.40;;;;;;;22.22;59.99;101492.97;5024457;28;20388;-79
2022/06/22 09:21:44;;;;;;;3.80;1.67;;;;;;;22.30;58.08;101499.53;5005492;28;20029;-79
2022/06/22 09:24:19;;;;;;;2.97;1.50;;;;;;;22.31;59.82;101502.13;5007922;28;20037;-78
2022/06/22 09:27:32;;;;;;;2.38;1.60;;;;;;;22.38;55.26;101500.59;4994115;28;20071;-79
2022/06/22 09:30:35;;;;;;;3.25;1.60;;;;;;;22.37;56.04;101504.28;5009091;28;20424;-78
2022/06/22 09:33:09;;;;;;;2.58;1.80;;;;;;;22.39;57.68;101507.72;5006880;28;20306;-77
2022/06/22 09:36:00;;;;;;;3.75;1.80;;;;;;;22.56;54.14;101510.84;5006467;28;20894;-78
2022/06/22 09:38:35;;;;;;;3.35;1.70;;;;;;;22.48;57.76;101511.47;5007720;28;20415;-77
2022/06/22 09:41:20;;;;;;;2.33;1.60;;;;;;;22.42;54.75;101513.81;5008853;28;20025;-77
2022/06/22 09:44:00;;;;;;;2.50;1.75;;;;;;;22.39;56.50;101507.72;5009771;28;20087;-76
2022/06/22 09:46:39;;;;;;;3.60;2.40;;;;;;;22.41;55.63;101514.81;5009919;28;20056;-83
2022/06/22 09:49:13;;;;;;;5.07;2.47;;;;;;;22.33;56.02;101510.94;5007866;28;20029;-84
2022/06/22 09:51:50;;;;;;;2.38;1.73;;;;;;;22.35;55.63;101514.34;4991568;28;20556;-86
2022/06/22 09:57:43;;;;;;;4.22;2.00;;;;;;;22.46;55.65;101509.88;5009075;28;20076;-86
2022/06/22 10:00:23;;;;;;;4.57;2.03;;;;;;;22.56;55.95;101508.16;5014114;28;20125;-89
2022/06/22 10:03:20;;;;;;;3.60;2.13;;;;;;;22.73;55.31;101505.81;5012500;28;20087;-85
2022/06/22 10:06:21;;;;;;;3.28;2.22;;;;;;;22.74;54.48;101496.72;5007154;28;20194;-87
2022/06/22 10:09:09;;;;;;;3.15;2.47;;;;;;;22.74;54.30;101494.03;5016481;28;20061;-86
2022/06/22 10:12:02;;;;;;;3.45;2.25;;;;;;;22.69;53.77;101499.81;5010959;28;20045;-85
2022/06/22 10:14:37;;;;;;;3.92;2.20;;;;;;;22.55;55.58;101495.63;5010608;28;20063;-77
2022/06/22 10:17:17;;;;;;;3.85;2.15;;;;;;;22.59;55.25;101497.06;4992663;28;20707;-84
2022/06/22 10:20:01;;;;;;;4.50;2.15;;;;;;;22.55;53.24;101497.47;5032348;28;20714;-86
2022/06/22 10:22:36;;;;;;;5.25;2.60;;;;;;;22.46;55.13;101489.16;5033853;28;20098;-86
2022/06/22 10:25:32;;;;;;;2.90;1.77;;;;;;;22.33;53.82;101489.34;5033431;28;20035;-85
2022/06/22 10:28:23;;;;;;;2.15;1.90;;;;;;;22.29;54.46;101487.94;5029990;28;20029;-84
2022/06/22 10:30:55;;;;;;;3.17;2.13;;;;;;;22.43;55.43;101493.97;5020882;28;20037;-84
2022/06/22 10:33:40;;;;;;;4.68;2.38;;;;;;;22.39;54.12;101494.22;4999309;28;20760;-86
2022/06/22 10:36:40;;;;;;;2.83;2.28;;;;;;;22.47;53.34;101487.31;5024801;28;20408;-90
2022/06/22 10:39:20;;;;;;;3.22;2.53;;;;;;;22.47;53.93;101490.00;5005463;28;20059;-89
2022/06/22 10:47:41;;;;;;;5.18;2.53;;;;;;;22.26;54.54;101493.56;5012110;28;20038;-85
2022/06/22 10:50:41;;;;;;;5.57;2.53;;;;;;;22.22;54.36;101492.13;4990821;28;21553;-87
2022/06/22 10:53:35;;;;;;;3.67;2.67;;;;;;;22.24;53.76;101496.38;4997415;28;20423;-83
2022/06/22 10:56:37;;;;;;;3.03;2.40;;;;;;;22.42;54.32;101498.50;5010933;28;20045;-82
2022/06/22 10:59:10;;;;;;;5.18;2.20;;;;;;;22.50;54.86;101501.38;5014866;28;20044;-82
2022/06/22 11:01:55;;;;;;;4.65;3.05;;;;;;;22.49;53.91;101505.06;5011059;28;20048;-82
2022/06/22 11:04:55;;;;;;;4.30;2.30;;;;;;;22.49;54.13;101496.97;5006714;28;20168;-82
2022/06/22 11:07:27;;;;;;;5.97;2.80;;;;;;;22.68;53.43;101486.47;5042778;28;20052;-81
2022/06/22 11:10:10;;;;;;;3.25;2.60;;;;;;;22.69;53.07;101490.88;5023974;28;20038;-81
2022/06/22 11:12:52;;;;;;;4.57;2.40;;;;;;;22.69;52.75;101483.63;5005748;28;20058;-82
2022/06/22 11:15:42;;;;;;;3.63;2.40;;;;;;;22.58;53.71;101478.31;5011436;28;20042;-81
2022/06/22 11:18:23;;;;;;;3.90;2.40;;;;;;;22.59;53.42;101474.63;5006316;28;20473;-81
2022/06/22 11:21:22;;;;;;;3.35;2.45;;;;;;;22.64;54.29;101475.09;5007001;28;20037;-81
2022/06/22 11:24:07;;;;;;;3.72;2.42;;;;;;;22.73;54.19;101476.13;5011469;28;20504;-81
2022/06/22 11:33:49;;;;;;;3.88;2.85;;;;;;;22.59;54.12;101467.41;5013819;28;20065;-82
2022/06/22 11:36:36;;;;;;;4.18;2.72;;;;;;;22.46;54.15;101466.72;5013652;28;20052;-84
2022/06/22 11:39:16;;;;;;;3.60;2.67;;;;;;;22.37;54.44;101469.22;5025319;28;20033;-85
2022/06/22 11:42:00;;;;;;;3.08;2.70;;;;;;;22.35;55.12;101471.19;5027130;28;20048;-83
2022/06/22 11:48:06;;;;;;;3.92;3.10;;;;;;;22.24;54.91;101468.59;5024023;28;20499;-85
2022/06/22 11:50:40;;;;;;;4.85;2.97;;;;;;;22.12;56.01;101462.41;4975099;28;20034;-84
2022/06/22 11:53:20;;;;;;;6.82;2.90;;;;;;;22.13;56.37;101464.09;5025401;28;20037;-85
2022/06/22 11:55:49;;;;;;;5.80;2.90;;;;;;;22.21;56.35;101455.34;5026427;28;20158;-86
2022/06/22 11:58:38;;;;;;;3.17;2.60;;;;;;;22.36;56.22;101459.44;5010363;28;20107;-86
2022/06/22 12:01:25;;;;;;;3.30;2.38;;;;;;;22.42;54.24;101455.34;5014972;28;20049;-85
2022/06/22 12:04:11;;;;;;;3.60;2.10;;;;;;;22.49;54.67;101455.66;4992316;28;20044;-84
2022/06/22 12:07:00;;;;;;;4.35;2.40;;;;;;;22.60;54.58;101452.91;4989007;28;20045;-86
2022/06/22 12:09:39;;;;;;;4.45;3.00;;;;;;;22.59;54.87;101450.34;4990704;28;20099;-90
2022/06/22 12:12:23;;;;;;;3.95;2.63;;;;;;;22.58;54.39;101454.03;4996541;28;20046;-90
2022/06/22 12:15:17;;;;;;;4.68;2.33;;;;;;;22.50;53.35;101441.19;5013449;28;20049;-83
2022/06/22 12:17:52;;;;;;;4.95;3.08;;;;;;;22.50;53.62;101446.59;5012386;28;20094;-83
2022/06/22 12:21:09;;;;;;;3.70;2.50;;;;;;;22.49;53.81;101439.47;5023517;28;20033;-82
2022/06/22 12:23:40;;;;;;;4.53;2.85;;;;;;;22.53;53.92;101443.66;4989872;28;20073;-82
2022/06/22 12:26:20;;;;;;;4.40;2.20;;;;;;;22.42;54.42;101438.28;5006851;28;20067;-89
2022/06/22 12:28:58;;;;;;;5.57;2.42;;;;;;;22.41;54.89;101436.59;4993332;28;20034;-87
2022/06/22 12:31:27;;;;;;;3.47;2.50;;;;;;;22.32;55.23;101428.31;5009977;28;20124;-90
2022/06/22 12:34:00;;;;;;;3.63;2.83;;;;;;;22.32;54.71;101422.94;4996297;28;20025;-90